KFMN

Four Corners Regional Airport

Airport
ICAO code
KFMN
IATA Code
FMN
Summary
ICAO Region
NAM
ICAO Territory
Location

Farmington, New Mexico

Serving
Farmington
Elevation
5506 ft
Coordinates
36° 44' 28" N , 108° 13' 47" W
KCC
Airport RE
Hot and High Operations
Metar
KFMN 191153Z AUTO 00000KT 10SM CLR 12/M06 A3003 RMK AO2 SLP119 T01221056 10178 20117 53004

Four Corners Regional Airport is a public airport located 1 nm northwest of the central business district of Farmington, a city in San Juan County, New Mexico, USA.

Airport map

Aerial View

SKYbrary Partners:

Safety knowledge contributed by: